createdAt,value
2022-12-28T00:01:30.428Z,98183.44
2022-12-28T00:04:03.243Z,98183.59
2022-12-28T00:06:30.170Z,98182.72
2022-12-28T00:08:57.514Z,98190.50
2022-12-28T00:11:26.643Z,98185.19
2022-12-28T00:13:56.511Z,98177.34
2022-12-28T00:16:32.452Z,98165.13
2022-12-28T00:19:01.217Z,98154.75
2022-12-28T00:21:28.508Z,98164.38
2022-12-28T00:23:57.964Z,98160.13
2022-12-28T00:26:29.152Z,98144.31
2022-12-28T00:29:03.566Z,98134.06
2022-12-28T00:31:31.759Z,98140.84
2022-12-28T00:33:58.610Z,98129.56
2022-12-28T00:37:09.225Z,98126.56
2022-12-28T00:39:12.483Z,98131.19
2022-12-28T00:41:39.312Z,98127.22
2022-12-28T00:44:08.907Z,98130.13
2022-12-28T00:46:35.967Z,98123.88
2022-12-28T00:49:02.753Z,98112.53
2022-12-28T00:51:29.539Z,98113.84
2022-12-28T00:53:56.412Z,98118.03
2022-12-28T00:56:23.537Z,98123.19
2022-12-28T00:58:50.725Z,98107.00
2022-12-28T01:01:21.116Z,98111.25
2022-12-28T01:03:48.162Z,98118.38
2022-12-28T01:06:17.246Z,98104.44
2022-12-28T01:08:44.487Z,98096.41
2022-12-28T01:11:18.324Z,98103.03
2022-12-28T01:13:46.963Z,98106.25
2022-12-28T01:16:20.042Z,98121.84
2022-12-28T01:18:48.451Z,98121.50
2022-12-28T01:21:17.750Z,98105.00
2022-12-28T01:23:46.169Z,98104.41
2022-12-28T01:26:13.549Z,98102.22
2022-12-28T01:28:40.551Z,98090.13
2022-12-28T01:31:12.359Z,98092.31
2022-12-28T01:33:39.586Z,98101.91
2022-12-28T01:36:27.649Z,98098.66
2022-12-28T01:38:56.960Z,98098.44
2022-12-28T01:41:24.901Z,98093.47
2022-12-28T01:43:54.712Z,98082.97
2022-12-28T01:46:35.141Z,98085.63
2022-12-28T01:49:37.796Z,98081.72
2022-12-28T01:52:17.080Z,98071.44
2022-12-28T01:54:47.977Z,98074.56
2022-12-28T01:57:15.632Z,98076.28
2022-12-28T01:59:48.538Z,98079.41
2022-12-28T02:02:16.339Z,98069.91
2022-12-28T02:04:44.683Z,98066.94
2022-12-28T02:07:13.277Z,98063.38
2022-12-28T02:09:41.756Z,98058.75
2022-12-28T02:12:11.134Z,98069.91
2022-12-28T02:14:39.123Z,98061.38
2022-12-28T02:17:08.387Z,98071.78
2022-12-28T02:19:45.520Z,98069.13
2022-12-28T02:22:34.499Z,98067.41
2022-12-28T02:25:32.936Z,98065.88
2022-12-28T02:28:02.846Z,98067.50
2022-12-28T02:30:33.528Z,98054.38
2022-12-28T02:33:12.665Z,98047.69
2022-12-28T02:35:54.737Z,98053.56
2022-12-28T02:38:43.809Z,98049.41
2022-12-28T02:41:19.179Z,98050.44
2022-12-28T02:43:46.429Z,98051.34
2022-12-28T02:46:38.530Z,98054.16
2022-12-28T02:49:47.277Z,98047.78
2022-12-28T02:52:40.860Z,98046.28
2022-12-28T02:55:38.637Z,98035.44
2022-12-28T02:58:12.217Z,98045.84
2022-12-28T03:00:44.577Z,98041.78
2022-12-28T03:03:42.773Z,98039.25
2022-12-28T03:06:40.495Z,98040.44
2022-12-28T03:09:13.249Z,98038.00
2022-12-28T03:11:51.428Z,98033.59
2022-12-28T03:14:33.138Z,98038.88
2022-12-28T03:17:18.975Z,98042.72
2022-12-28T03:20:08.684Z,98045.25
2022-12-28T03:22:55.722Z,98040.16
2022-12-28T03:25:44.810Z,98043.03
2022-12-28T03:28:34.244Z,98060.22
2022-12-28T03:31:08.624Z,98057.22
2022-12-28T03:33:47.397Z,98053.97
2022-12-28T03:36:23.673Z,98049.84
2022-12-28T03:39:03.788Z,98048.81
2022-12-28T03:41:45.580Z,98045.47
2022-12-28T03:44:29.024Z,98047.78
2022-12-28T03:47:11.661Z,98048.25
2022-12-28T03:49:39.220Z,98050.94
2022-12-28T03:52:07.455Z,98054.44
2022-12-28T03:54:34.285Z,98058.50
2022-12-28T03:57:01.197Z,98052.84
2022-12-28T03:59:32.649Z,98054.34
2022-12-28T04:02:01.722Z,98051.25
2022-12-28T04:04:30.732Z,98055.28
2022-12-28T04:06:57.545Z,98053.66
2022-12-28T04:09:24.395Z,98055.06
2022-12-28T04:11:51.217Z,98052.53
2022-12-28T04:14:25.735Z,98063.94
2022-12-28T04:16:52.614Z,98060.13
2022-12-28T04:19:20.771Z,98063.72
2022-12-28T04:21:48.600Z,98051.00
2022-12-28T04:24:15.486Z,98059.66
2022-12-28T04:26:42.397Z,98061.38
2022-12-28T04:29:10.812Z,98061.72
2022-12-28T04:31:47.411Z,98070.16
2022-12-28T04:34:18.432Z,98064.19
2022-12-28T04:36:59.610Z,98058.19
2022-12-28T04:39:27.586Z,98059.22
2022-12-28T04:42:14.363Z,98057.78
2022-12-28T04:44:41.148Z,98060.78
2022-12-28T04:47:07.900Z,98054.78
2022-12-28T04:49:34.623Z,98049.56
2022-12-28T04:52:01.457Z,98063.50
2022-12-28T04:54:28.162Z,98054.84
2022-12-28T04:56:54.906Z,98068.31
2022-12-28T04:59:21.811Z,98072.00
2022-12-28T05:01:48.656Z,98075.34
2022-12-28T05:04:15.482Z,98078.19
2022-12-28T05:06:42.344Z,98075.41
2022-12-28T05:09:09.084Z,98083.38
2022-12-28T05:11:35.864Z,98081.31
2022-12-28T05:14:02.672Z,98078.72
2022-12-28T05:16:29.739Z,98074.91
2022-12-28T05:18:57.563Z,98062.91
2022-12-28T05:21:27.958Z,98066.38
2022-12-28T05:23:56.841Z,98051.03
2022-12-28T05:26:26.269Z,98063.59
2022-12-28T05:28:53.065Z,98067.28
2022-12-28T05:31:21.791Z,98066.97
2022-12-28T05:33:49.169Z,98049.09
2022-12-28T05:36:18.465Z,98051.50
2022-12-28T05:38:45.606Z,98052.56
2022-12-28T05:41:16.742Z,98043.22
2022-12-28T05:43:44.107Z,98041.25
2022-12-28T05:46:14.091Z,98045.28
2022-12-28T05:48:42.035Z,98044.91
2022-12-28T05:51:11.628Z,98035.66
2022-12-28T05:53:38.889Z,98034.28
2022-12-28T05:56:14.231Z,98036.13
2022-12-28T05:58:42.874Z,98030.25
2022-12-28T06:01:15.872Z,98041.59
2022-12-28T06:03:43.367Z,98044.25
2022-12-28T06:06:13.270Z,98041.78
2022-12-28T06:08:40.739Z,98032.81
2022-12-28T06:11:09.674Z,98032.00
2022-12-28T06:13:37.324Z,98039.59
2022-12-28T06:16:09.128Z,98047.63
2022-12-28T06:18:37.503Z,98052.00
2022-12-28T06:21:31.483Z,98059.72
2022-12-28T06:23:59.882Z,98067.94
2022-12-28T06:26:28.991Z,98062.28
2022-12-28T06:28:56.342Z,98050.13
2022-12-28T06:31:25.072Z,98051.09
2022-12-28T06:33:57.256Z,98060.75
2022-12-28T06:36:30.085Z,98047.78
2022-12-28T06:38:58.449Z,98042.22
2022-12-28T06:41:26.091Z,98048.97
2022-12-28T06:43:53.445Z,98040.56
2022-12-28T06:46:21.751Z,98041.25
2022-12-28T06:48:48.954Z,98035.31
2022-12-28T06:51:21.488Z,98039.13
2022-12-28T06:53:49.407Z,98042.00
2022-12-28T06:56:18.355Z,98025.69
2022-12-28T06:58:46.056Z,98020.22
2022-12-28T07:01:21.031Z,98022.28
2022-12-28T07:03:49.259Z,98027.34
2022-12-28T07:06:18.105Z,98022.81
2022-12-28T07:08:45.395Z,98031.78
2022-12-28T07:11:15.537Z,98038.13
2022-12-28T07:13:42.447Z,98034.31
2022-12-28T07:16:17.516Z,98027.22
2022-12-28T07:18:44.774Z,98042.13
2022-12-28T07:21:23.008Z,98051.63
2022-12-28T07:23:51.140Z,98063.41
2022-12-28T07:26:20.637Z,98064.47
2022-12-28T07:28:49.258Z,98079.41
2022-12-28T07:31:21.133Z,98081.34
2022-12-28T07:33:48.848Z,98080.91
2022-12-28T07:36:17.692Z,98077.78
2022-12-28T07:38:44.937Z,98069.94
2022-12-28T07:41:17.530Z,98059.00
2022-12-28T07:43:44.551Z,98053.81
2022-12-28T07:46:13.389Z,98055.88
2022-12-28T07:48:42.130Z,98063.72
2022-12-28T07:51:11.657Z,98078.75
2022-12-28T07:53:39.115Z,98079.41
2022-12-28T07:56:06.884Z,98078.16
2022-12-28T07:58:34.123Z,98081.91
2022-12-28T08:01:10.223Z,98063.81
2022-12-28T08:03:37.768Z,98050.56
2022-12-28T08:06:25.040Z,98055.97
2022-12-28T08:08:59.717Z,98062.44
2022-12-28T08:11:29.670Z,98055.75
2022-12-28T08:13:57.182Z,98056.78
2022-12-28T08:16:26.905Z,98060.69
2022-12-28T08:18:54.609Z,98045.47
2022-12-28T08:21:27.213Z,98037.63
2022-12-28T08:23:54.656Z,98026.66
2022-12-28T08:26:23.127Z,98035.28
2022-12-28T08:28:51.971Z,98050.97
2022-12-28T08:31:24.369Z,98061.72
2022-12-28T08:33:52.359Z,98079.63
2022-12-28T08:36:19.318Z,98085.63
2022-12-28T08:38:46.472Z,98079.72
2022-12-28T08:41:18.588Z,98083.28
2022-12-28T08:43:46.225Z,98069.78
2022-12-28T08:46:14.466Z,98067.03
2022-12-28T08:48:41.359Z,98059.56
2022-12-28T08:51:14.263Z,98058.16
2022-12-28T08:53:41.801Z,98055.28
2022-12-28T08:56:10.538Z,98066.34
2022-12-28T08:58:41.721Z,98081.56
2022-12-28T09:01:14.314Z,98083.97
2022-12-28T09:03:43.325Z,98075.09
2022-12-28T09:06:12.861Z,98082.41
2022-12-28T09:08:42.291Z,98090.19
2022-12-28T09:11:12.108Z,98083.06
2022-12-28T09:13:40.190Z,98087.66
2022-12-28T09:16:12.280Z,98091.13
2022-12-28T09:18:40.346Z,98099.84
2022-12-28T09:21:27.440Z,98098.09
2022-12-28T09:23:54.664Z,98093.47
2022-12-28T09:26:24.053Z,98101.88
2022-12-28T09:28:53.033Z,98116.84
2022-12-28T09:31:21.127Z,98125.13
2022-12-28T09:36:51.049Z,98095.19
2022-12-28T09:39:24.546Z,98082.94
2022-12-28T09:41:55.156Z,98071.03
2022-12-28T09:44:43.808Z,98077.16
2022-12-28T09:47:24.896Z,98071.81
2022-12-28T09:50:06.975Z,98071.56
2022-12-28T09:52:58.110Z,98071.75
2022-12-28T09:55:25.733Z,98051.84
2022-12-28T09:57:55.933Z,98047.56
2022-12-28T10:00:31.262Z,98051.06
2022-12-28T10:03:01.432Z,98035.50
2022-12-28T10:05:28.485Z,98031.81
2022-12-28T10:07:57.903Z,98022.41
2022-12-28T10:10:26.327Z,98030.06
2022-12-28T10:12:53.211Z,98025.00
2022-12-28T10:15:22.929Z,98008.19
2022-12-28T10:17:49.720Z,98002.34
2022-12-28T10:20:19.328Z,97989.44
2022-12-28T10:22:52.562Z,97983.13
2022-12-28T10:25:22.065Z,97979.00
2022-12-28T10:27:49.452Z,97967.84
2022-12-28T10:30:19.911Z,97967.88
2022-12-28T10:33:01.804Z,97961.91
2022-12-28T10:35:35.725Z,97941.28
2022-12-28T10:38:06.226Z,97947.28
2022-12-28T10:40:37.380Z,97955.00
2022-12-28T10:43:10.430Z,97949.94
2022-12-28T10:45:42.264Z,97945.88
2022-12-28T10:48:20.235Z,97944.41
2022-12-28T10:50:47.075Z,97935.06
2022-12-28T10:53:26.597Z,97934.72
2022-12-28T10:56:23.873Z,97937.69
2022-12-28T10:58:53.205Z,97926.97
2022-12-28T11:01:26.763Z,97921.34
2022-12-28T11:03:56.530Z,97924.09
2022-12-28T11:06:27.379Z,97925.78
2022-12-28T11:09:12.884Z,97936.53
2022-12-28T11:11:40.347Z,97911.75
2022-12-28T11:14:18.466Z,97897.44
2022-12-28T11:16:45.462Z,97900.00
2022-12-28T11:19:13.074Z,97900.53
2022-12-28T11:21:41.521Z,97910.09
2022-12-28T11:24:13.021Z,97911.81
2022-12-28T11:26:43.399Z,97916.97
2022-12-28T11:29:12.610Z,97929.03
2022-12-28T11:31:50.534Z,97913.69
2022-12-28T11:34:23.817Z,97915.66
2022-12-28T11:36:50.766Z,97924.31
2022-12-28T11:39:26.389Z,97923.28
2022-12-28T11:42:28.044Z,97918.91
2022-12-28T11:44:49.061Z,97914.25
2022-12-28T11:47:15.991Z,97909.09
2022-12-28T11:49:44.033Z,97902.41
2022-12-28T11:52:17.196Z,97910.28
2022-12-28T11:54:54.166Z,97895.81
2022-12-28T11:57:54.470Z,97893.22
2022-12-28T12:00:23.019Z,97889.84
2022-12-28T12:02:57.189Z,97867.75
2022-12-28T12:05:39.145Z,97862.91
2022-12-28T12:08:12.121Z,97867.25
2022-12-28T12:10:41.663Z,97874.59
2022-12-28T12:13:26.636Z,97857.56
2022-12-28T12:15:59.501Z,97829.97
2022-12-28T12:18:28.828Z,97822.06
2022-12-28T12:21:15.018Z,97820.88
2022-12-28T12:23:51.404Z,97824.91
2022-12-28T12:26:38.490Z,97795.09
2022-12-28T12:29:23.130Z,97766.09
2022-12-28T12:32:12.969Z,97757.63
2022-12-28T12:34:49.174Z,97751.56
2022-12-28T12:37:38.496Z,97752.94
2022-12-28T12:40:24.574Z,97734.97
2022-12-28T12:43:10.475Z,97725.50
2022-12-28T12:45:44.049Z,97726.81
2022-12-28T12:48:32.599Z,97740.50
2022-12-28T12:51:30.969Z,97730.31
2022-12-28T12:54:06.454Z,97698.03
2022-12-28T12:56:33.564Z,97701.34
2022-12-28T12:59:03.494Z,97701.19
2022-12-28T13:02:08.654Z,97694.47
2022-12-28T13:04:35.702Z,97667.53
2022-12-28T13:07:05.474Z,97649.13
2022-12-28T13:09:34.500Z,97637.88
2022-12-28T13:12:02.225Z,97638.03
2022-12-28T13:14:29.708Z,97629.59
2022-12-28T13:16:58.726Z,97620.22
2022-12-28T13:19:27.964Z,97612.81
2022-12-28T13:21:55.274Z,97605.94
2022-12-28T13:24:25.224Z,97601.72
2022-12-28T13:26:52.298Z,97574.72
2022-12-28T13:29:26.274Z,97549.53
2022-12-28T13:31:53.117Z,97551.06
2022-12-28T13:34:23.232Z,97554.75
2022-12-28T13:36:56.509Z,97522.34
2022-12-28T13:39:24.776Z,97520.75
2022-12-28T13:41:53.852Z,97535.63
2022-12-28T13:44:38.385Z,97531.31
2022-12-28T13:47:17.329Z,97529.56
2022-12-28T13:49:51.308Z,97529.00
2022-12-28T13:52:24.677Z,97516.75
2022-12-28T13:54:55.456Z,97515.41
2022-12-28T14:00:10.711Z,97483.69
2022-12-28T14:02:40.426Z,97481.00
2022-12-28T14:05:08.012Z,97465.88
2022-12-28T14:07:36.098Z,97464.84
2022-12-28T14:10:03.873Z,97455.50
2022-12-28T14:12:31.837Z,97448.09
2022-12-28T14:14:59.238Z,97439.34
2022-12-28T14:17:26.336Z,97439.91
2022-12-28T14:19:55.855Z,97423.41
2022-12-28T14:22:28.532Z,97412.50
2022-12-28T14:25:16.256Z,97408.00
2022-12-28T14:27:57.429Z,97403.75
2022-12-28T14:30:38.720Z,97400.13
2022-12-28T14:33:14.416Z,97392.69
2022-12-28T14:35:50.144Z,97375.66
2022-12-28T14:38:19.957Z,97365.00
2022-12-28T14:40:55.997Z,97355.19
2022-12-28T14:43:28.439Z,97350.44
2022-12-28T14:46:05.367Z,97344.91
2022-12-28T14:48:40.579Z,97340.41
2022-12-28T14:51:17.664Z,97328.88
2022-12-28T14:53:45.505Z,97323.91
2022-12-28T14:56:14.493Z,97306.38
2022-12-28T14:58:56.151Z,97293.06
2022-12-28T15:01:23.651Z,97290.63
2022-12-28T15:03:56.412Z,97273.94
2022-12-28T15:06:27.203Z,97272.56
2022-12-28T15:08:55.289Z,97270.69
2022-12-28T15:11:23.973Z,97253.72
2022-12-28T15:13:51.069Z,97251.81
2022-12-28T15:16:19.821Z,97243.91
2022-12-28T15:18:46.933Z,97236.09
2022-12-28T15:21:19.811Z,97229.97
2022-12-28T15:23:50.917Z,97224.91
2022-12-28T15:26:17.742Z,97213.50
2022-12-28T15:28:44.595Z,97197.88
2022-12-28T15:31:13.903Z,97194.63
2022-12-28T15:33:40.963Z,97186.38
2022-12-28T15:36:17.396Z,97173.38
2022-12-28T15:38:46.182Z,97165.97
2022-12-28T15:41:31.858Z,97163.84
2022-12-28T15:43:58.654Z,97147.38
2022-12-28T15:46:25.590Z,97147.16
2022-12-28T15:48:52.421Z,97133.56
2022-12-28T15:51:19.282Z,97122.72
2022-12-28T15:53:46.060Z,97109.13
2022-12-28T15:56:27.410Z,97113.69
2022-12-28T15:58:55.668Z,97107.00
2022-12-28T16:01:24.070Z,97101.69
2022-12-28T16:03:51.925Z,97099.84
2022-12-28T16:06:19.591Z,97090.03
2022-12-28T16:08:46.619Z,97090.25
2022-12-28T16:11:16.860Z,97079.59
2022-12-28T16:13:43.768Z,97067.66
2022-12-28T16:16:12.530Z,97056.75
2022-12-28T16:18:39.842Z,97051.47
2022-12-28T16:21:08.080Z,97044.81
2022-12-28T16:23:37.125Z,97041.63
2022-12-28T16:26:04.468Z,97034.19
2022-12-28T16:28:31.415Z,97026.19
2022-12-28T16:30:58.303Z,97017.94
2022-12-28T16:33:25.553Z,97007.56
2022-12-28T16:35:59.366Z,97001.97
2022-12-28T16:38:28.926Z,96992.66
2022-12-28T16:40:56.921Z,96983.38
2022-12-28T16:43:24.242Z,96974.59
2022-12-28T16:45:51.399Z,96977.25
2022-12-28T16:48:18.416Z,96972.72
2022-12-28T16:50:45.187Z,96969.00
2022-12-28T16:53:12.456Z,96953.06
2022-12-28T16:55:41.917Z,96946.66
2022-12-28T16:58:09.169Z,96937.31
2022-12-28T17:00:36.099Z,96924.78
2022-12-28T17:03:03.078Z,96925.59
2022-12-28T17:05:34.316Z,96909.94
2022-12-28T17:08:01.908Z,96900.91
2022-12-28T17:10:29.058Z,96889.72
2022-12-28T17:12:55.874Z,96889.72
2022-12-28T17:15:23.345Z,96880.91
2022-12-28T17:17:50.388Z,96877.44
2022-12-28T17:20:17.395Z,96867.53
2022-12-28T17:22:44.224Z,96849.78
2022-12-28T17:25:11.048Z,96839.47
2022-12-28T17:27:37.977Z,96837.81
2022-12-28T17:30:05.445Z,96840.19
2022-12-28T17:32:32.357Z,96819.78
2022-12-28T17:34:59.346Z,96815.38
2022-12-28T17:37:26.121Z,96805.59
2022-12-28T17:39:52.877Z,96802.13
2022-12-28T17:42:19.746Z,96789.13
2022-12-28T17:44:48.531Z,96780.34
2022-12-28T17:47:15.569Z,96768.41
2022-12-28T17:49:42.528Z,96765.50
2022-12-28T17:52:09.633Z,96760.19
2022-12-28T17:54:36.452Z,96747.31
2022-12-28T17:57:03.378Z,96745.78
2022-12-28T17:59:30.374Z,96737.72
2022-12-28T18:01:57.416Z,96723.72
2022-12-28T18:04:24.307Z,96711.31
2022-12-28T18:06:51.102Z,96709.75
2022-12-28T18:09:21.111Z,96700.63
2022-12-28T18:11:52.495Z,96698.47
2022-12-28T18:14:19.287Z,96689.06
2022-12-28T18:16:46.139Z,96675.47
2022-12-28T18:19:12.975Z,96665.28
2022-12-28T18:21:39.920Z,96651.97
2022-12-28T18:24:07.462Z,96641.78
2022-12-28T18:26:34.551Z,96635.66
2022-12-28T18:29:01.309Z,96625.28
2022-12-28T18:31:28.241Z,96610.47
2022-12-28T18:33:55.029Z,96598.47
2022-12-28T18:36:22.231Z,96592.19
2022-12-28T18:38:49.993Z,96584.28
2022-12-28T18:41:18.712Z,96578.28
2022-12-28T18:43:45.491Z,96571.69
2022-12-28T18:46:12.443Z,96557.25
2022-12-28T18:48:40.599Z,96537.56
2022-12-28T18:51:13.498Z,96535.09
2022-12-28T18:53:40.856Z,96522.66
2022-12-28T18:56:10.076Z,96513.16
2022-12-28T18:58:38.154Z,96498.47
2022-12-28T19:01:16.185Z,96491.28
2022-12-28T19:03:57.277Z,96487.09
2022-12-28T19:06:26.088Z,96478.16
2022-12-28T19:08:52.917Z,96463.75
2022-12-28T19:11:20.016Z,96450.66
2022-12-28T19:13:46.795Z,96449.09
2022-12-28T19:16:16.216Z,96434.03
2022-12-28T19:18:43.067Z,96421.78
2022-12-28T19:21:18.986Z,96411.13
2022-12-28T19:23:45.932Z,96400.66
2022-12-28T19:26:14.490Z,96389.16
2022-12-28T19:28:41.343Z,96375.25
2022-12-28T19:31:08.085Z,96368.81
2022-12-28T19:33:34.980Z,96365.56
2022-12-28T19:36:01.795Z,96353.13
2022-12-28T19:38:28.755Z,96345.16
2022-12-28T19:40:56.034Z,96345.16
2022-12-28T19:43:23.477Z,96346.50
2022-12-28T19:45:50.245Z,96342.78
2022-12-28T19:48:17.089Z,96338.59
2022-12-28T19:50:43.831Z,96342.16
2022-12-28T19:53:10.660Z,96331.91
2022-12-28T19:55:37.511Z,96330.63
2022-12-28T19:58:04.584Z,96321.06
2022-12-28T20:00:31.335Z,96323.72
2022-12-28T20:02:58.290Z,96323.13
2022-12-28T20:05:25.928Z,96311.47
2022-12-28T20:07:52.788Z,96309.19
2022-12-28T20:10:19.617Z,96304.16
2022-12-28T20:12:46.775Z,96304.81
2022-12-28T20:15:13.604Z,96303.66
2022-12-28T20:17:42.219Z,96296.66
2022-12-28T20:20:09.270Z,96279.47
2022-12-28T20:22:40.323Z,96293.59
2022-12-28T20:25:07.339Z,96285.31
2022-12-28T20:27:34.126Z,96279.19
2022-12-28T20:30:01.037Z,96283.91
2022-12-28T20:32:27.833Z,96286.31
2022-12-28T20:34:54.591Z,96280.91
2022-12-28T20:37:21.331Z,96279.38
2022-12-28T20:39:48.192Z,96273.75
2022-12-28T20:42:33.360Z,96262.09
2022-12-28T20:45:00.289Z,96254.84
2022-12-28T20:47:27.085Z,96266.28
2022-12-28T20:49:53.919Z,96260.34
2022-12-28T20:52:20.853Z,96263.63
2022-12-28T20:54:47.777Z,96279.75
2022-12-28T20:57:14.572Z,96263.94
2022-12-28T20:59:41.553Z,96258.81
2022-12-28T21:02:10.212Z,96256.59
2022-12-28T21:04:37.092Z,96250.63
2022-12-28T21:07:04.867Z,96241.06
2022-12-28T21:09:31.729Z,96242.16
2022-12-28T21:11:58.547Z,96240.41
2022-12-28T21:14:25.412Z,96236.88
2022-12-28T21:16:52.266Z,96233.09
2022-12-28T21:19:19.178Z,96230.66
2022-12-28T21:21:48.443Z,96229.56
2022-12-28T21:24:15.211Z,96234.31
2022-12-28T21:26:42.084Z,96218.50
2022-12-28T21:29:09.008Z,96221.22
2022-12-28T21:31:35.894Z,96217.00
2022-12-28T21:34:02.847Z,96219.38
2022-12-28T21:36:29.558Z,96213.81
2022-12-28T21:38:56.313Z,96213.81
2022-12-28T21:41:41.608Z,96214.25
2022-12-28T21:44:11.682Z,96220.84
2022-12-28T21:46:38.471Z,96201.38
2022-12-28T21:49:05.484Z,96209.31
2022-12-28T21:51:35.043Z,96202.53
2022-12-28T21:54:03.059Z,96195.63
2022-12-28T21:56:30.311Z,96189.47
2022-12-28T21:58:58.173Z,96180.78
2022-12-28T22:01:44.560Z,96183.06
2022-12-28T22:04:35.531Z,96175.06
2022-12-28T22:07:03.388Z,96174.66
2022-12-28T22:09:48.846Z,96174.78
2022-12-28T22:12:34.645Z,96171.91
2022-12-28T22:15:33.613Z,96163.19
2022-12-28T22:18:05.434Z,96161.09
2022-12-28T22:20:34.334Z,96154.91
2022-12-28T22:23:01.495Z,96152.63
2022-12-28T22:25:30.095Z,96148.81
2022-12-28T22:27:57.558Z,96136.16
2022-12-28T22:30:24.401Z,96133.00
2022-12-28T22:32:51.229Z,96138.38
2022-12-28T22:35:18.227Z,96134.13
2022-12-28T22:37:45.136Z,96120.50
2022-12-28T22:40:12.734Z,96122.19
2022-12-28T22:42:44.359Z,96113.44
2022-12-28T22:45:12.739Z,96110.81
2022-12-28T22:47:40.031Z,96116.91
2022-12-28T22:50:08.809Z,96109.63
2022-12-28T22:52:35.643Z,96106.19
2022-12-28T22:55:02.447Z,96092.69
2022-12-28T22:57:29.293Z,96089.53
2022-12-28T22:59:56.160Z,96085.75
2022-12-28T23:02:23.039Z,96079.41
2022-12-28T23:04:49.911Z,96087.81
2022-12-28T23:07:16.703Z,96081.78
2022-12-28T23:09:43.540Z,96066.31
2022-12-28T23:12:10.307Z,96056.03
2022-12-28T23:14:55.842Z,96057.59
2022-12-28T23:17:23.864Z,96047.00
2022-12-28T23:20:09.061Z,96046.44
2022-12-28T23:22:54.476Z,96045.13
2022-12-28T23:25:41.927Z,96035.88
2022-12-28T23:28:14.407Z,96032.28
2022-12-28T23:30:44.332Z,96028.94
2022-12-28T23:33:11.435Z,96022.19
2022-12-28T23:35:38.282Z,96022.59
2022-12-28T23:38:05.100Z,96021.59
2022-12-28T23:40:31.892Z,96017.34
2022-12-28T23:42:58.793Z,96001.25
2022-12-28T23:45:25.543Z,96013.91
2022-12-28T23:47:53.463Z,96004.88
2022-12-28T23:50:20.341Z,96002.16
2022-12-28T23:52:47.178Z,95999.84
2022-12-28T23:55:14.096Z,95994.56
2022-12-28T23:57:41.286Z,95998.09
